sensor_id;sensor_type;location;lat;lon;timestamp;temperature;humidity
68433;DHT22;55412;51.350;17.056;2023-05-07T00:00:52;8.10;97.50
68433;DHT22;55412;51.350;17.056;2023-05-07T00:03:19;8.10;97.70
68433;DHT22;55412;51.350;17.056;2023-05-07T00:05:45;8.00;97.90
68433;DHT22;55412;51.350;17.056;2023-05-07T00:08:12;8.00;98.20
68433;DHT22;55412;51.350;17.056;2023-05-07T00:10:38;8.00;98.30
68433;DHT22;55412;51.350;17.056;2023-05-07T00:13:04;8.00;98.30
68433;DHT22;55412;51.350;17.056;2023-05-07T00:15:30;8.00;98.00
68433;DHT22;55412;51.350;17.056;2023-05-07T00:17:56;7.90;98.40
68433;DHT22;55412;51.350;17.056;2023-05-07T00:20:24;7.90;98.70
68433;DHT22;55412;51.350;17.056;2023-05-07T00:22:50;7.90;98.80
68433;DHT22;55412;51.350;17.056;2023-05-07T00:25:16;7.90;99.00
68433;DHT22;55412;51.350;17.056;2023-05-07T00:27:42;7.90;98.70
68433;DHT22;55412;51.350;17.056;2023-05-07T00:30:08;7.80;98.70
68433;DHT22;55412;51.350;17.056;2023-05-07T00:32:35;7.80;98.80
68433;DHT22;55412;51.350;17.056;2023-05-07T00:35:02;7.80;98.60
68433;DHT22;55412;51.350;17.056;2023-05-07T00:37:29;7.80;98.40
68433;DHT22;55412;51.350;17.056;2023-05-07T00:39:55;7.80;98.20
68433;DHT22;55412;51.350;17.056;2023-05-07T00:42:21;7.80;98.10
68433;DHT22;55412;51.350;17.056;2023-05-07T00:44:47;7.80;98.00
68433;DHT22;55412;51.350;17.056;2023-05-07T00:47:13;7.80;98.00
68433;DHT22;55412;51.350;17.056;2023-05-07T00:49:42;7.80;98.20
68433;DHT22;55412;51.350;17.056;2023-05-07T00:52:14;7.80;98.00
68433;DHT22;55412;51.350;17.056;2023-05-07T00:54:42;7.80;97.90
68433;DHT22;55412;51.350;17.056;2023-05-07T00:57:11;7.80;98.00
68433;DHT22;55412;51.350;17.056;2023-05-07T00:59:38;7.80;97.60
68433;DHT22;55412;51.350;17.056;2023-05-07T01:02:06;7.80;97.50
68433;DHT22;55412;51.350;17.056;2023-05-07T01:04:32;7.80;97.30
68433;DHT22;55412;51.350;17.056;2023-05-07T01:06:59;7.80;97.20
68433;DHT22;55412;51.350;17.056;2023-05-07T01:09:26;7.80;97.10
68433;DHT22;55412;51.350;17.056;2023-05-07T01:11:55;7.80;97.40
68433;DHT22;55412;51.350;17.056;2023-05-07T01:14:23;7.80;97.20
68433;DHT22;55412;51.350;17.056;2023-05-07T01:16:49;7.80;97.00
68433;DHT22;55412;51.350;17.056;2023-05-07T01:19:18;7.80;96.90
68433;DHT22;55412;51.350;17.056;2023-05-07T01:21:48;7.80;96.90
68433;DHT22;55412;51.350;17.056;2023-05-07T01:24:15;7.80;96.40
68433;DHT22;55412;51.350;17.056;2023-05-07T01:26:43;7.80;96.50
68433;DHT22;55412;51.350;17.056;2023-05-07T01:29:10;7.80;96.60
68433;DHT22;55412;51.350;17.056;2023-05-07T01:31:37;7.80;96.30
68433;DHT22;55412;51.350;17.056;2023-05-07T01:34:03;7.80;96.30
68433;DHT22;55412;51.350;17.056;2023-05-07T01:36:31;7.80;96.10
68433;DHT22;55412;51.350;17.056;2023-05-07T01:38:59;7.80;96.20
68433;DHT22;55412;51.350;17.056;2023-05-07T01:41:25;7.80;96.20
68433;DHT22;55412;51.350;17.056;2023-05-07T01:43:52;7.80;96.20
68433;DHT22;55412;51.350;17.056;2023-05-07T01:46:20;7.80;95.80
68433;DHT22;55412;51.350;17.056;2023-05-07T01:48:47;7.80;95.60
68433;DHT22;55412;51.350;17.056;2023-05-07T01:51:13;7.80;95.40
68433;DHT22;55412;51.350;17.056;2023-05-07T01:53:39;7.80;95.50
68433;DHT22;55412;51.350;17.056;2023-05-07T01:56:06;7.70;95.20
68433;DHT22;55412;51.350;17.056;2023-05-07T01:58:33;7.70;95.20
68433;DHT22;55412;51.350;17.056;2023-05-07T02:00:59;7.70;95.20
68433;DHT22;55412;51.350;17.056;2023-05-07T02:03:25;7.70;95.20
68433;DHT22;55412;51.350;17.056;2023-05-07T02:05:51;7.70;95.10
68433;DHT22;55412;51.350;17.056;2023-05-07T02:08:17;7.70;95.30
68433;DHT22;55412;51.350;17.056;2023-05-07T02:10:43;7.70;95.50
68433;DHT22;55412;51.350;17.056;2023-05-07T02:13:09;7.60;94.90
68433;DHT22;55412;51.350;17.056;2023-05-07T02:15:35;7.60;94.70
68433;DHT22;55412;51.350;17.056;2023-05-07T02:18:07;7.60;95.20
68433;DHT22;55412;51.350;17.056;2023-05-07T02:20:35;7.50;95.30
68433;DHT22;55412;51.350;17.056;2023-05-07T02:23:01;7.50;95.40
68433;DHT22;55412;51.350;17.056;2023-05-07T02:25:27;7.50;95.40
68433;DHT22;55412;51.350;17.056;2023-05-07T02:27:53;7.50;95.60
68433;DHT22;55412;51.350;17.056;2023-05-07T02:30:19;7.50;95.70
68433;DHT22;55412;51.350;17.056;2023-05-07T02:32:46;7.50;95.10
68433;DHT22;55412;51.350;17.056;2023-05-07T02:35:12;7.50;94.80
68433;DHT22;55412;51.350;17.056;2023-05-07T02:37:38;7.50;95.20
68433;DHT22;55412;51.350;17.056;2023-05-07T02:40:05;7.50;95.40
68433;DHT22;55412;51.350;17.056;2023-05-07T02:42:31;7.50;95.40
68433;DHT22;55412;51.350;17.056;2023-05-07T02:44:57;7.50;95.40
68433;DHT22;55412;51.350;17.056;2023-05-07T02:47:25;7.50;95.30
68433;DHT22;55412;51.350;17.056;2023-05-07T02:49:54;7.50;95.40
68433;DHT22;55412;51.350;17.056;2023-05-07T02:52:21;7.50;95.20
68433;DHT22;55412;51.350;17.056;2023-05-07T02:54:48;7.50;95.30
68433;DHT22;55412;51.350;17.056;2023-05-07T02:57:14;7.50;95.30
68433;DHT22;55412;51.350;17.056;2023-05-07T02:59:40;7.50;95.60
68433;DHT22;55412;51.350;17.056;2023-05-07T03:02:07;7.50;95.50
68433;DHT22;55412;51.350;17.056;2023-05-07T03:04:33;7.50;95.00
68433;DHT22;55412;51.350;17.056;2023-05-07T03:06:59;7.50;95.20
68433;DHT22;55412;51.350;17.056;2023-05-07T03:09:25;7.50;94.90
68433;DHT22;55412;51.350;17.056;2023-05-07T03:11:51;7.50;94.90
68433;DHT22;55412;51.350;17.056;2023-05-07T03:14:17;7.50;94.50
68433;DHT22;55412;51.350;17.056;2023-05-07T03:16:43;7.50;94.70
68433;DHT22;55412;51.350;17.056;2023-05-07T03:19:09;7.50;94.60
68433;DHT22;55412;51.350;17.056;2023-05-07T03:21:35;7.40;94.80
68433;DHT22;55412;51.350;17.056;2023-05-07T03:24:01;7.40;94.70
68433;DHT22;55412;51.350;17.056;2023-05-07T03:26:27;7.40;94.70
68433;DHT22;55412;51.350;17.056;2023-05-07T03:28:53;7.40;94.60
68433;DHT22;55412;51.350;17.056;2023-05-07T03:31:20;7.40;94.80
68433;DHT22;55412;51.350;17.056;2023-05-07T03:33:54;7.40;94.80
68433;DHT22;55412;51.350;17.056;2023-05-07T03:36:21;7.40;94.70
68433;DHT22;55412;51.350;17.056;2023-05-07T03:38:48;7.40;94.60
68433;DHT22;55412;51.350;17.056;2023-05-07T03:41:15;7.40;94.60
68433;DHT22;55412;51.350;17.056;2023-05-07T03:43:41;7.40;94.20
68433;DHT22;55412;51.350;17.056;2023-05-07T03:46:07;7.40;94.50
68433;DHT22;55412;51.350;17.056;2023-05-07T03:48:34;7.30;94.30
68433;DHT22;55412;51.350;17.056;2023-05-07T03:51:00;7.30;94.40
68433;DHT22;55412;51.350;17.056;2023-05-07T03:53:26;7.30;94.80
68433;DHT22;55412;51.350;17.056;2023-05-07T03:55:52;7.30;94.80
68433;DHT22;55412;51.350;17.056;2023-05-07T03:58:18;7.30;94.90
68433;DHT22;55412;51.350;17.056;2023-05-07T04:00:44;7.30;94.90
68433;DHT22;55412;51.350;17.056;2023-05-07T04:03:11;7.30;95.00
68433;DHT22;55412;51.350;17.056;2023-05-07T04:05:36;7.30;94.80
68433;DHT22;55412;51.350;17.056;2023-05-07T04:08:03;7.30;94.90
68433;DHT22;55412;51.350;17.056;2023-05-07T04:10:29;7.30;95.00
68433;DHT22;55412;51.350;17.056;2023-05-07T04:12:55;7.30;95.00
68433;DHT22;55412;51.350;17.056;2023-05-07T04:15:23;7.30;94.70
68433;DHT22;55412;51.350;17.056;2023-05-07T04:17:49;7.30;94.80
68433;DHT22;55412;51.350;17.056;2023-05-07T04:20:16;7.30;94.80
68433;DHT22;55412;51.350;17.056;2023-05-07T04:22:43;7.30;94.80
68433;DHT22;55412;51.350;17.056;2023-05-07T04:25:09;7.40;94.60
68433;DHT22;55412;51.350;17.056;2023-05-07T04:27:36;7.40;95.10
68433;DHT22;55412;51.350;17.056;2023-05-07T04:30:03;7.40;94.30
68433;DHT22;55412;51.350;17.056;2023-05-07T04:32:30;7.40;94.10
68433;DHT22;55412;51.350;17.056;2023-05-07T04:34:57;7.40;92.90
68433;DHT22;55412;51.350;17.056;2023-05-07T04:37:23;7.40;93.30
68433;DHT22;55412;51.350;17.056;2023-05-07T04:39:49;7.40;93.80
68433;DHT22;55412;51.350;17.056;2023-05-07T04:42:16;7.40;93.10
68433;DHT22;55412;51.350;17.056;2023-05-07T04:44:44;7.40;93.70
68433;DHT22;55412;51.350;17.056;2023-05-07T04:47:11;7.50;93.90
68433;DHT22;55412;51.350;17.056;2023-05-07T04:49:38;7.50;92.90
68433;DHT22;55412;51.350;17.056;2023-05-07T04:52:04;7.50;92.60
68433;DHT22;55412;51.350;17.056;2023-05-07T04:54:30;7.50;92.20
68433;DHT22;55412;51.350;17.056;2023-05-07T04:56:56;7.50;91.60
68433;DHT22;55412;51.350;17.056;2023-05-07T04:59:22;7.50;91.20
68433;DHT22;55412;51.350;17.056;2023-05-07T05:01:48;7.50;91.10
68433;DHT22;55412;51.350;17.056;2023-05-07T05:04:14;7.50;91.20
68433;DHT22;55412;51.350;17.056;2023-05-07T05:06:40;7.50;90.90
68433;DHT22;55412;51.350;17.056;2023-05-07T05:09:06;7.60;91.20
68433;DHT22;55412;51.350;17.056;2023-05-07T05:11:32;7.60;91.30
68433;DHT22;55412;51.350;17.056;2023-05-07T05:13:59;7.60;91.50
68433;DHT22;55412;51.350;17.056;2023-05-07T05:16:26;7.60;91.20
68433;DHT22;55412;51.350;17.056;2023-05-07T05:18:52;7.70;90.60
68433;DHT22;55412;51.350;17.056;2023-05-07T05:21:20;7.60;90.50
68433;DHT22;55412;51.350;17.056;2023-05-07T05:23:46;7.70;90.50
68433;DHT22;55412;51.350;17.056;2023-05-07T05:26:13;7.70;90.20
68433;DHT22;55412;51.350;17.056;2023-05-07T05:28:39;7.70;90.40
68433;DHT22;55412;51.350;17.056;2023-05-07T05:31:05;7.70;90.00
68433;DHT22;55412;51.350;17.056;2023-05-07T05:33:31;7.70;90.00
68433;DHT22;55412;51.350;17.056;2023-05-07T05:35:57;7.70;90.90
68433;DHT22;55412;51.350;17.056;2023-05-07T05:38:23;7.70;90.10
68433;DHT22;55412;51.350;17.056;2023-05-07T05:40:49;7.70;89.50
68433;DHT22;55412;51.350;17.056;2023-05-07T05:43:15;7.70;89.60
68433;DHT22;55412;51.350;17.056;2023-05-07T05:45:41;7.70;89.80
68433;DHT22;55412;51.350;17.056;2023-05-07T05:48:07;7.70;89.60
68433;DHT22;55412;51.350;17.056;2023-05-07T05:50:34;7.70;89.70
68433;DHT22;55412;51.350;17.056;2023-05-07T05:53:02;7.60;90.00
68433;DHT22;55412;51.350;17.056;2023-05-07T05:55:28;7.60;88.80
68433;DHT22;55412;51.350;17.056;2023-05-07T05:57:54;7.60;88.20
68433;DHT22;55412;51.350;17.056;2023-05-07T06:00:21;7.60;88.20
68433;DHT22;55412;51.350;17.056;2023-05-07T06:02:48;7.60;88.60
68433;DHT22;55412;51.350;17.056;2023-05-07T06:05:14;7.60;88.90
68433;DHT22;55412;51.350;17.056;2023-05-07T06:07:40;7.60;88.20
68433;DHT22;55412;51.350;17.056;2023-05-07T06:10:07;7.60;88.70
68433;DHT22;55412;51.350;17.056;2023-05-07T06:12:33;7.60;88.30
68433;DHT22;55412;51.350;17.056;2023-05-07T06:14:59;7.60;87.30
68433;DHT22;55412;51.350;17.056;2023-05-07T06:17:25;7.60;87.70
68433;DHT22;55412;51.350;17.056;2023-05-07T06:19:52;7.60;88.30
68433;DHT22;55412;51.350;17.056;2023-05-07T06:22:18;7.60;88.60
68433;DHT22;55412;51.350;17.056;2023-05-07T06:24:44;7.70;88.40
68433;DHT22;55412;51.350;17.056;2023-05-07T06:27:11;7.70;87.00
68433;DHT22;55412;51.350;17.056;2023-05-07T06:29:37;7.70;87.20
68433;DHT22;55412;51.350;17.056;2023-05-07T06:32:21;7.70;86.90
68433;DHT22;55412;51.350;17.056;2023-05-07T06:34:47;7.70;86.40
68433;DHT22;55412;51.350;17.056;2023-05-07T06:37:13;7.70;87.10
68433;DHT22;55412;51.350;17.056;2023-05-07T06:39:39;7.70;86.40
68433;DHT22;55412;51.350;17.056;2023-05-07T06:42:05;7.70;86.00
68433;DHT22;55412;51.350;17.056;2023-05-07T06:44:32;7.60;86.10
68433;DHT22;55412;51.350;17.056;2023-05-07T06:46:58;7.60;86.40
68433;DHT22;55412;51.350;17.056;2023-05-07T06:49:24;7.60;87.00
68433;DHT22;55412;51.350;17.056;2023-05-07T06:51:50;7.60;86.60
68433;DHT22;55412;51.350;17.056;2023-05-07T06:54:16;7.50;87.50
68433;DHT22;55412;51.350;17.056;2023-05-07T06:56:42;7.50;87.00
68433;DHT22;55412;51.350;17.056;2023-05-07T06:59:08;7.50;88.60
68433;DHT22;55412;51.350;17.056;2023-05-07T07:01:34;7.60;87.50
68433;DHT22;55412;51.350;17.056;2023-05-07T07:04:00;7.60;87.60
68433;DHT22;55412;51.350;17.056;2023-05-07T07:06:26;7.70;87.50
68433;DHT22;55412;51.350;17.056;2023-05-07T07:08:52;7.70;87.20
68433;DHT22;55412;51.350;17.056;2023-05-07T07:11:18;7.80;87.00
68433;DHT22;55412;51.350;17.056;2023-05-07T07:13:44;8.00;87.10
68433;DHT22;55412;51.350;17.056;2023-05-07T07:16:10;8.10;86.00
68433;DHT22;55412;51.350;17.056;2023-05-07T07:18:36;8.10;85.70
68433;DHT22;55412;51.350;17.056;2023-05-07T07:21:03;8.20;83.90
68433;DHT22;55412;51.350;17.056;2023-05-07T07:23:29;8.20;84.80
68433;DHT22;55412;51.350;17.056;2023-05-07T07:25:55;8.20;84.40
68433;DHT22;55412;51.350;17.056;2023-05-07T07:28:21;8.20;84.60
68433;DHT22;55412;51.350;17.056;2023-05-07T07:30:47;8.10;84.20
68433;DHT22;55412;51.350;17.056;2023-05-07T07:33:13;8.00;85.50
68433;DHT22;55412;51.350;17.056;2023-05-07T07:35:40;8.00;85.70
68433;DHT22;55412;51.350;17.056;2023-05-07T07:38:06;8.00;85.50
68433;DHT22;55412;51.350;17.056;2023-05-07T07:40:34;8.00;85.40
68433;DHT22;55412;51.350;17.056;2023-05-07T07:43:00;8.00;86.60
68433;DHT22;55412;51.350;17.056;2023-05-07T07:45:27;7.90;86.80
68433;DHT22;55412;51.350;17.056;2023-05-07T07:47:53;7.90;87.00
68433;DHT22;55412;51.350;17.056;2023-05-07T07:50:19;7.90;87.30
68433;DHT22;55412;51.350;17.056;2023-05-07T07:52:46;7.90;87.70
68433;DHT22;55412;51.350;17.056;2023-05-07T07:55:12;7.90;87.30
68433;DHT22;55412;51.350;17.056;2023-05-07T07:57:39;8.00;88.20
68433;DHT22;55412;51.350;17.056;2023-05-07T08:00:05;8.00;86.80
68433;DHT22;55412;51.350;17.056;2023-05-07T08:02:32;8.10;86.50
68433;DHT22;55412;51.350;17.056;2023-05-07T08:04:58;8.10;86.10
68433;DHT22;55412;51.350;17.056;2023-05-07T08:07:24;8.10;85.40
68433;DHT22;55412;51.350;17.056;2023-05-07T08:09:50;8.10;86.40
68433;DHT22;55412;51.350;17.056;2023-05-07T08:12:17;8.10;86.20
68433;DHT22;55412;51.350;17.056;2023-05-07T08:14:43;8.00;86.80
68433;DHT22;55412;51.350;17.056;2023-05-07T08:17:09;8.00;86.80
68433;DHT22;55412;51.350;17.056;2023-05-07T08:19:35;7.90;86.50
68433;DHT22;55412;51.350;17.056;2023-05-07T08:22:03;7.90;86.20
68433;DHT22;55412;51.350;17.056;2023-05-07T08:24:31;7.80;85.90
68433;DHT22;55412;51.350;17.056;2023-05-07T08:26:57;7.80;86.40
68433;DHT22;55412;51.350;17.056;2023-05-07T08:29:23;7.80;87.00
68433;DHT22;55412;51.350;17.056;2023-05-07T08:31:49;7.80;85.10
68433;DHT22;55412;51.350;17.056;2023-05-07T08:34:15;7.80;85.20
68433;DHT22;55412;51.350;17.056;2023-05-07T08:36:41;7.80;84.90
68433;DHT22;55412;51.350;17.056;2023-05-07T08:39:11;7.80;84.30
68433;DHT22;55412;51.350;17.056;2023-05-07T08:41:37;7.80;84.80
68433;DHT22;55412;51.350;17.056;2023-05-07T08:44:06;7.80;85.20
68433;DHT22;55412;51.350;17.056;2023-05-07T08:46:38;7.80;85.30
68433;DHT22;55412;51.350;17.056;2023-05-07T08:49:05;7.80;86.10
68433;DHT22;55412;51.350;17.056;2023-05-07T08:51:31;7.80;84.20
68433;DHT22;55412;51.350;17.056;2023-05-07T08:53:58;7.80;84.80
68433;DHT22;55412;51.350;17.056;2023-05-07T08:56:25;7.80;84.50
68433;DHT22;55412;51.350;17.056;2023-05-07T08:58:51;7.80;86.50
68433;DHT22;55412;51.350;17.056;2023-05-07T09:01:22;7.80;85.60
68433;DHT22;55412;51.350;17.056;2023-05-07T09:03:49;7.80;85.20
68433;DHT22;55412;51.350;17.056;2023-05-07T09:06:15;7.80;83.70
68433;DHT22;55412;51.350;17.056;2023-05-07T09:08:49;7.80;84.10
68433;DHT22;55412;51.350;17.056;2023-05-07T09:11:19;7.80;84.10
68433;DHT22;55412;51.350;17.056;2023-05-07T09:13:46;7.90;84.50
68433;DHT22;55412;51.350;17.056;2023-05-07T09:16:12;7.90;84.40
68433;DHT22;55412;51.350;17.056;2023-05-07T09:18:43;7.90;82.40
68433;DHT22;55412;51.350;17.056;2023-05-07T09:21:11;8.00;84.20
68433;DHT22;55412;51.350;17.056;2023-05-07T09:23:40;8.10;83.60
68433;DHT22;55412;51.350;17.056;2023-05-07T09:26:07;8.20;83.40
68433;DHT22;55412;51.350;17.056;2023-05-07T09:28:41;8.30;82.50
68433;DHT22;55412;51.350;17.056;2023-05-07T09:31:08;8.50;81.60
68433;DHT22;55412;51.350;17.056;2023-05-07T09:33:35;8.60;80.70
68433;DHT22;55412;51.350;17.056;2023-05-07T09:36:05;8.70;80.10
68433;DHT22;55412;51.350;17.056;2023-05-07T09:38:33;8.80;77.50
68433;DHT22;55412;51.350;17.056;2023-05-07T09:41:05;8.80;78.80
68433;DHT22;55412;51.350;17.056;2023-05-07T09:43:33;8.90;77.60
68433;DHT22;55412;51.350;17.056;2023-05-07T09:46:07;8.90;79.20
68433;DHT22;55412;51.350;17.056;2023-05-07T09:48:40;8.90;77.90
68433;DHT22;55412;51.350;17.056;2023-05-07T09:51:20;8.90;77.30
68433;DHT22;55412;51.350;17.056;2023-05-07T09:53:48;8.90;78.80
68433;DHT22;55412;51.350;17.056;2023-05-07T09:56:16;8.90;77.30
68433;DHT22;55412;51.350;17.056;2023-05-07T09:58:43;9.00;78.00
68433;DHT22;55412;51.350;17.056;2023-05-07T10:01:11;9.00;76.00
68433;DHT22;55412;51.350;17.056;2023-05-07T10:03:40;9.10;76.80
68433;DHT22;55412;51.350;17.056;2023-05-07T10:06:09;9.10;76.30
68433;DHT22;55412;51.350;17.056;2023-05-07T10:08:36;9.10;78.80
68433;DHT22;55412;51.350;17.056;2023-05-07T10:11:06;9.20;76.50
68433;DHT22;55412;51.350;17.056;2023-05-07T10:13:33;9.20;76.70
68433;DHT22;55412;51.350;17.056;2023-05-07T10:16:04;9.20;78.20
68433;DHT22;55412;51.350;17.056;2023-05-07T10:18:34;9.20;76.60
68433;DHT22;55412;51.350;17.056;2023-05-07T10:23:58;9.30;76.40
68433;DHT22;55412;51.350;17.056;2023-05-07T10:26:27;9.30;75.40
68433;DHT22;55412;51.350;17.056;2023-05-07T10:28:58;9.30;75.50
68433;DHT22;55412;51.350;17.056;2023-05-07T10:34:47;9.30;75.80
68433;DHT22;55412;51.350;17.056;2023-05-07T10:37:14;9.30;76.10
68433;DHT22;55412;51.350;17.056;2023-05-07T10:39:41;9.40;77.50
68433;DHT22;55412;51.350;17.056;2023-05-07T10:42:11;9.50;77.00
68433;DHT22;55412;51.350;17.056;2023-05-07T10:44:38;9.60;76.30
68433;DHT22;55412;51.350;17.056;2023-05-07T10:47:12;9.70;76.20
68433;DHT22;55412;51.350;17.056;2023-05-07T10:52:18;9.80;74.60
68433;DHT22;55412;51.350;17.056;2023-05-07T10:54:46;10.00;75.40
68433;DHT22;55412;51.350;17.056;2023-05-07T10:57:34;10.10;75.80
68433;DHT22;55412;51.350;17.056;2023-05-07T11:00:40;10.30;75.40
68433;DHT22;55412;51.350;17.056;2023-05-07T11:05:30;10.40;73.20
68433;DHT22;55412;51.350;17.056;2023-05-07T11:08:00;10.40;73.60
68433;DHT22;55412;51.350;17.056;2023-05-07T11:10:52;10.30;73.70
68433;DHT22;55412;51.350;17.056;2023-05-07T11:13:48;10.30;72.80
68433;DHT22;55412;51.350;17.056;2023-05-07T11:16:20;10.20;73.30
68433;DHT22;55412;51.350;17.056;2023-05-07T11:18:53;10.10;72.40
68433;DHT22;55412;51.350;17.056;2023-05-07T11:24:01;10.00;72.80
68433;DHT22;55412;51.350;17.056;2023-05-07T11:26:30;10.10;72.30
68433;DHT22;55412;51.350;17.056;2023-05-07T11:29:11;10.20;73.10
68433;DHT22;55412;51.350;17.056;2023-05-07T11:31:38;10.20;73.20
68433;DHT22;55412;51.350;17.056;2023-05-07T11:34:05;10.20;74.00
68433;DHT22;55412;51.350;17.056;2023-05-07T11:36:33;10.30;74.10
68433;DHT22;55412;51.350;17.056;2023-05-07T11:38:59;10.30;73.60
68433;DHT22;55412;51.350;17.056;2023-05-07T11:41:35;10.30;72.90
68433;DHT22;55412;51.350;17.056;2023-05-07T11:44:04;10.30;72.80
68433;DHT22;55412;51.350;17.056;2023-05-07T11:46:31;10.20;72.70
68433;DHT22;55412;51.350;17.056;2023-05-07T11:48:58;10.10;73.00
68433;DHT22;55412;51.350;17.056;2023-05-07T11:51:25;10.10;73.60
68433;DHT22;55412;51.350;17.056;2023-05-07T11:53:53;10.10;73.50
68433;DHT22;55412;51.350;17.056;2023-05-07T11:56:19;10.10;73.60
68433;DHT22;55412;51.350;17.056;2023-05-07T11:58:47;10.20;73.20
68433;DHT22;55412;51.350;17.056;2023-05-07T12:01:14;10.20;72.30
68433;DHT22;55412;51.350;17.056;2023-05-07T12:03:43;10.20;73.20
68433;DHT22;55412;51.350;17.056;2023-05-07T12:06:12;10.20;71.80
68433;DHT22;55412;51.350;17.056;2023-05-07T12:08:40;10.30;70.10
68433;DHT22;55412;51.350;17.056;2023-05-07T12:11:41;10.20;70.70
68433;DHT22;55412;51.350;17.056;2023-05-07T12:14:00;10.20;73.10
68433;DHT22;55412;51.350;17.056;2023-05-07T12:16:27;10.20;73.40
68433;DHT22;55412;51.350;17.056;2023-05-07T12:18:53;10.20;73.00
68433;DHT22;55412;51.350;17.056;2023-05-07T12:21:20;10.10;72.30
68433;DHT22;55412;51.350;17.056;2023-05-07T12:23:47;10.10;72.40
68433;DHT22;55412;51.350;17.056;2023-05-07T12:26:14;10.00;71.40
68433;DHT22;55412;51.350;17.056;2023-05-07T12:28:41;10.00;72.10
68433;DHT22;55412;51.350;17.056;2023-05-07T12:31:07;10.00;72.00
68433;DHT22;55412;51.350;17.056;2023-05-07T12:33:34;9.90;73.00
68433;DHT22;55412;51.350;17.056;2023-05-07T12:36:05;9.90;72.20
68433;DHT22;55412;51.350;17.056;2023-05-07T12:38:37;9.90;72.00
68433;DHT22;55412;51.350;17.056;2023-05-07T12:41:04;9.90;74.10
68433;DHT22;55412;51.350;17.056;2023-05-07T12:43:31;10.00;72.50
68433;DHT22;55412;51.350;17.056;2023-05-07T12:46:00;10.00;71.90
68433;DHT22;55412;51.350;17.056;2023-05-07T12:48:28;10.00;72.90
68433;DHT22;55412;51.350;17.056;2023-05-07T12:50:55;10.00;71.40
68433;DHT22;55412;51.350;17.056;2023-05-07T12:53:24;10.00;71.40
68433;DHT22;55412;51.350;17.056;2023-05-07T12:55:56;10.00;71.90
68433;DHT22;55412;51.350;17.056;2023-05-07T12:58:27;10.00;71.80
68433;DHT22;55412;51.350;17.056;2023-05-07T13:00:56;9.90;72.20
68433;DHT22;55412;51.350;17.056;2023-05-07T13:03:29;9.90;72.70
68433;DHT22;55412;51.350;17.056;2023-05-07T13:06:05;10.00;74.00
68433;DHT22;55412;51.350;17.056;2023-05-07T13:08:37;10.00;73.00
68433;DHT22;55412;51.350;17.056;2023-05-07T13:11:07;10.10;73.00
68433;DHT22;55412;51.350;17.056;2023-05-07T13:13:35;10.10;71.60
68433;DHT22;55412;51.350;17.056;2023-05-07T13:16:02;10.10;73.80
68433;DHT22;55412;51.350;17.056;2023-05-07T13:18:30;10.10;71.40
68433;DHT22;55412;51.350;17.056;2023-05-07T13:20:58;10.10;71.10
68433;DHT22;55412;51.350;17.056;2023-05-07T13:23:24;10.00;71.40
68433;DHT22;55412;51.350;17.056;2023-05-07T13:25:50;10.00;73.50
68433;DHT22;55412;51.350;17.056;2023-05-07T13:28:18;9.90;72.40
68433;DHT22;55412;51.350;17.056;2023-05-07T13:30:44;9.90;72.30
68433;DHT22;55412;51.350;17.056;2023-05-07T13:33:10;9.80;71.70
68433;DHT22;55412;51.350;17.056;2023-05-07T13:35:36;9.80;73.00
68433;DHT22;55412;51.350;17.056;2023-05-07T13:38:03;9.80;72.80
68433;DHT22;55412;51.350;17.056;2023-05-07T13:40:29;9.80;73.10
68433;DHT22;55412;51.350;17.056;2023-05-07T13:42:57;9.70;73.40
68433;DHT22;55412;51.350;17.056;2023-05-07T13:45:25;9.70;74.30
68433;DHT22;55412;51.350;17.056;2023-05-07T13:47:52;9.80;74.60
68433;DHT22;55412;51.350;17.056;2023-05-07T13:50:18;9.80;74.40
68433;DHT22;55412;51.350;17.056;2023-05-07T13:52:44;9.80;73.40
68433;DHT22;55412;51.350;17.056;2023-05-07T13:55:20;9.80;73.80
68433;DHT22;55412;51.350;17.056;2023-05-07T13:57:53;9.70;72.80
68433;DHT22;55412;51.350;17.056;2023-05-07T14:00:21;9.70;73.40
68433;DHT22;55412;51.350;17.056;2023-05-07T14:02:47;9.60;73.30
68433;DHT22;55412;51.350;17.056;2023-05-07T14:05:13;9.60;74.00
68433;DHT22;55412;51.350;17.056;2023-05-07T14:07:39;9.60;74.30
68433;DHT22;55412;51.350;17.056;2023-05-07T14:10:06;9.70;72.30
68433;DHT22;55412;51.350;17.056;2023-05-07T14:12:33;9.60;72.70
68433;DHT22;55412;51.350;17.056;2023-05-07T14:14:59;9.60;73.40
68433;DHT22;55412;51.350;17.056;2023-05-07T14:17:25;9.60;72.60
68433;DHT22;55412;51.350;17.056;2023-05-07T14:19:53;9.60;71.90
68433;DHT22;55412;51.350;17.056;2023-05-07T14:22:21;9.60;72.10
68433;DHT22;55412;51.350;17.056;2023-05-07T14:24:48;9.60;72.60
68433;DHT22;55412;51.350;17.056;2023-05-07T14:27:15;9.60;72.50
68433;DHT22;55412;51.350;17.056;2023-05-07T14:29:41;9.60;72.30
68433;DHT22;55412;51.350;17.056;2023-05-07T14:32:08;9.60;72.50
68433;DHT22;55412;51.350;17.056;2023-05-07T14:34:34;9.70;73.00
68433;DHT22;55412;51.350;17.056;2023-05-07T14:37:00;9.70;72.00
68433;DHT22;55412;51.350;17.056;2023-05-07T14:39:27;9.80;72.40
68433;DHT22;55412;51.350;17.056;2023-05-07T14:41:53;9.90;73.20
68433;DHT22;55412;51.350;17.056;2023-05-07T14:44:21;9.90;73.10
68433;DHT22;55412;51.350;17.056;2023-05-07T14:46:47;10.00;70.30
68433;DHT22;55412;51.350;17.056;2023-05-07T14:49:14;10.00;71.10
68433;DHT22;55412;51.350;17.056;2023-05-07T14:51:46;10.00;70.00
68433;DHT22;55412;51.350;17.056;2023-05-07T14:54:13;10.00;71.00
68433;DHT22;55412;51.350;17.056;2023-05-07T14:56:41;10.10;70.40
68433;DHT22;55412;51.350;17.056;2023-05-07T14:59:08;10.20;69.80
68433;DHT22;55412;51.350;17.056;2023-05-07T15:01:36;10.20;70.80
68433;DHT22;55412;51.350;17.056;2023-05-07T15:04:05;10.30;70.20
68433;DHT22;55412;51.350;17.056;2023-05-07T15:06:31;10.30;70.10
68433;DHT22;55412;51.350;17.056;2023-05-07T15:08:58;10.30;69.10
68433;DHT22;55412;51.350;17.056;2023-05-07T15:11:25;10.30;69.60
68433;DHT22;55412;51.350;17.056;2023-05-07T15:13:51;10.30;70.10
68433;DHT22;55412;51.350;17.056;2023-05-07T15:16:18;10.30;68.20
68433;DHT22;55412;51.350;17.056;2023-05-07T15:18:44;10.30;68.60
68433;DHT22;55412;51.350;17.056;2023-05-07T15:21:10;10.20;69.30
68433;DHT22;55412;51.350;17.056;2023-05-07T15:23:37;10.20;69.10
68433;DHT22;55412;51.350;17.056;2023-05-07T15:26:04;10.10;69.60
68433;DHT22;55412;51.350;17.056;2023-05-07T15:28:31;10.10;69.60
68433;DHT22;55412;51.350;17.056;2023-05-07T15:30:57;10.10;70.10
68433;DHT22;55412;51.350;17.056;2023-05-07T15:33:23;10.20;70.40
68433;DHT22;55412;51.350;17.056;2023-05-07T15:35:50;10.20;70.20
68433;DHT22;55412;51.350;17.056;2023-05-07T15:38:16;10.20;70.70
68433;DHT22;55412;51.350;17.056;2023-05-07T15:40:42;10.20;70.00
68433;DHT22;55412;51.350;17.056;2023-05-07T15:43:09;10.20;70.20